Time;durP1;ratioP1;P1;durP2;ratioP2;P2;SDS_P1;SDS_P2;PMS_P1;PMS_P2;Temp;Humidity;BMP_temperature;BMP_pressure;BME280_temperature;BME280_humidity;BME280_pressure;Samples;Min_cycle;Max_cycle;Signal;HPM_P1;HPM_P2
2023/01/10 00:00:33;;;;;;;19.10;18.43;;;21.40;60.40;;;;;;5075019;28;20439;-57
2023/01/10 00:03:00;;;;;;;19.20;18.50;;;21.40;60.30;;;;;;5075068;28;21041;-57
2023/01/10 00:05:27;;;;;;;19.30;18.50;;;21.40;60.40;;;;;;5075060;28;20872;-58
2023/01/10 00:07:54;;;;;;;19.00;18.30;;;21.30;60.20;;;;;;5079579;28;20443;-59
2023/01/10 00:10:22;;;;;;;19.80;18.97;;;21.40;60.40;;;;;;5082753;28;20442;-58
2023/01/10 00:15:34;;;;;;;20.00;19.13;;;21.40;60.40;;;;;;5095324;28;20421;-59
2023/01/10 00:18:01;;;;;;;19.70;18.90;;;21.30;60.30;;;;;;5081459;28;20454;-59
2023/01/10 00:20:29;;;;;;;19.50;18.80;;;21.30;60.30;;;;;;5074554;28;20959;-57
2023/01/10 00:22:56;;;;;;;19.97;19.20;;;21.30;60.30;;;;;;5074699;28;20470;-56
2023/01/10 00:25:23;;;;;;;20.13;19.33;;;21.30;60.30;;;;;;5079426;28;20448;-59
2023/01/10 00:28:00;;;;;;;19.67;18.90;;;21.30;60.20;;;;;;5095004;28;20443;-59
2023/01/10 00:30:27;;;;;;;20.33;19.43;;;21.30;60.20;;;;;;5094796;28;20779;-57
2023/01/10 00:32:56;;;;;;;20.10;19.30;;;21.30;60.20;;;;;;5094727;28;20535;-58
2023/01/10 00:35:23;;;;;;;19.87;19.17;;;21.30;60.30;;;;;;5089516;28;20530;-57
2023/01/10 00:37:53;;;;;;;20.13;19.33;;;21.30;60.40;;;;;;5074492;28;20812;-60
2023/01/10 00:40:20;;;;;;;19.50;18.80;;;21.30;60.40;;;;;;5074443;28;21009;-57
2023/01/10 00:45:31;;;;;;;19.87;19.07;;;21.20;60.50;;;;;;5074454;28;20442;-59
2023/01/10 00:47:59;;;;;;;19.60;18.90;;;21.30;60.50;;;;;;5073192;28;20501;-58
2023/01/10 00:50:26;;;;;;;19.90;19.10;;;21.30;60.50;;;;;;5074138;28;20534;-59
2023/01/10 00:52:53;;;;;;;20.07;19.30;;;21.30;60.60;;;;;;5074092;28;20510;-59
2023/01/10 00:55:20;;;;;;;19.50;18.80;;;21.20;60.50;;;;;;5092077;28;20951;-58
2023/01/10 00:57:47;;;;;;;21.63;20.80;;;21.30;60.50;;;;;;5094459;28;20777;-57
2023/01/10 01:00:14;;;;;;;20.20;19.40;;;21.20;60.40;;;;;;5094223;28;20442;-55
2023/01/10 01:02:41;;;;;;;20.13;19.37;;;21.20;60.50;;;;;;5094179;28;20754;-57
2023/01/10 01:05:10;;;;;;;19.80;19.10;;;21.20;60.40;;;;;;5077779;28;20447;-58
2023/01/10 01:07:37;;;;;;;20.00;19.20;;;21.20;60.50;;;;;;5074027;28;20447;-57
2023/01/10 01:12:49;;;;;;;19.73;18.80;;;21.20;60.40;;;;;;5094118;28;20477;-56
2023/01/10 01:15:16;;;;;;;19.77;18.87;;;21.20;60.40;;;;;;5093480;28;20444;-57
2023/01/10 01:17:43;;;;;;;19.80;19.10;;;21.20;60.40;;;;;;5094024;28;20503;-56
2023/01/10 01:20:12;;;;;;;20.00;19.20;;;21.20;60.30;;;;;;5093867;28;20537;-55
2023/01/10 01:22:38;;;;;;;20.37;19.57;;;21.20;60.40;;;;;;5093704;28;20486;-55
2023/01/10 01:25:06;;;;;;;20.13;19.33;;;21.20;60.40;;;;;;5078442;28;20538;-55
2023/01/10 01:27:33;;;;;;;19.70;19.00;;;21.20;60.60;;;;;;5073727;28;20447;-55
2023/01/10 01:30:00;;;;;;;20.30;19.40;;;21.20;60.60;;;;;;5073320;28;20999;-57
2023/01/10 01:32:27;;;;;;;19.53;18.83;;;21.20;60.70;;;;;;5083473;28;20486;-58
2023/01/10 01:34:54;;;;;;;20.13;19.33;;;21.20;60.70;;;;;;5093817;28;20935;-59
2023/01/10 01:37:23;;;;;;;19.83;19.03;;;21.20;60.70;;;;;;5093660;28;20533;-60
2023/01/10 01:39:49;;;;;;;19.40;18.70;;;21.20;60.70;;;;;;5094013;28;20869;-58
2023/01/10 01:42:26;;;;;;;19.27;18.57;;;21.20;60.70;;;;;;5084937;28;20528;-58
2023/01/10 01:45:32;;;;;;;19.40;18.70;;;21.20;60.70;;;;;;5074415;28;20450;-59
2023/01/10 01:48:06;;;;;;;19.80;19.10;;;21.20;60.70;;;;;;5084979;28;20534;-59
2023/01/10 01:50:36;;;;;;;20.17;19.37;;;21.20;60.70;;;;;;5086586;28;20511;-59
2023/01/10 01:53:12;;;;;;;19.83;19.03;;;21.20;60.70;;;;;;5087053;28;21019;-59
2023/01/10 01:55:39;;;;;;;20.20;19.30;;;21.20;60.70;;;;;;5085037;28;20442;-58
2023/01/10 01:58:12;;;;;;;19.80;19.00;;;21.20;60.70;;;;;;5083762;28;20495;-59
2023/01/10 02:00:39;;;;;;;19.80;19.00;;;21.20;60.70;;;;;;5079883;28;20480;-60
2023/01/10 02:03:07;;;;;;;19.80;19.07;;;21.20;60.60;;;;;;5073542;28;20467;-59
2023/01/10 02:05:37;;;;;;;19.60;18.80;;;21.20;60.60;;;;;;5073951;28;20447;-58
2023/01/10 02:08:06;;;;;;;19.90;19.10;;;21.20;60.60;;;;;;5073261;28;20538;-58
2023/01/10 02:10:39;;;;;;;19.90;19.20;;;21.20;60.60;;;;;;5074748;28;20817;-61
2023/01/10 02:13:09;;;;;;;20.33;19.53;;;21.10;60.50;;;;;;5072748;28;20910;-59
2023/01/10 02:15:35;;;;;;;19.40;18.70;;;21.10;60.60;;;;;;5072634;28;20994;-61
2023/01/10 02:18:04;;;;;;;19.33;18.60;;;21.10;60.70;;;;;;5072546;28;20457;-56
2023/01/10 02:20:39;;;;;;;19.37;18.57;;;21.10;60.80;;;;;;5078950;28;20468;-60
2023/01/10 02:23:49;;;;;;;19.77;19.03;;;21.10;60.80;;;;;;5080269;28;20466;-59
2023/01/10 02:26:38;;;;;;;19.50;18.80;;;21.20;61.00;;;;;;5072649;28;20558;-58
2023/01/10 02:29:34;;;;;;;19.80;18.90;;;21.20;61.00;;;;;;5072371;28;20867;-56
2023/01/10 02:32:13;;;;;;;20.07;19.30;;;21.10;60.90;;;;;;5086740;28;20530;-58
2023/01/10 02:34:52;;;;;;;20.97;20.03;;;21.10;61.00;;;;;;5092646;28;20558;-60
2023/01/10 02:37:25;;;;;;;19.97;19.17;;;21.10;61.10;;;;;;5092575;28;20446;-55
2023/01/10 02:40:01;;;;;;;20.50;19.60;;;21.10;61.00;;;;;;5091806;28;20453;-55
2023/01/10 02:42:33;;;;;;;19.70;19.00;;;21.10;61.00;;;;;;5072158;28;20459;-56
2023/01/10 02:45:06;;;;;;;19.47;18.70;;;21.10;61.10;;;;;;5072151;28;20530;-59
2023/01/10 02:47:38;;;;;;;19.70;18.70;;;21.10;61.10;;;;;;5072038;28;20444;-58
2023/01/10 02:50:27;;;;;;;19.80;19.00;;;21.10;61.80;;;;;;5074184;28;20943;-59
2023/01/10 02:52:56;;;;;;;19.80;18.80;;;21.10;61.10;;;;;;5092066;28;20486;-55
2023/01/10 02:55:31;;;;;;;20.20;19.40;;;21.10;61.10;;;;;;5092268;28;20438;-59
2023/01/10 02:58:07;;;;;;;19.80;18.83;;;21.10;61.10;;;;;;5092189;28;20442;-59
2023/01/10 03:00:44;;;;;;;19.33;18.63;;;21.10;61.10;;;;;;5085513;28;20481;-60
2023/01/10 03:03:32;;;;;;;19.73;19.03;;;21.10;61.20;;;;;;5071912;28;20566;-59
2023/01/10 03:06:08;;;;;;;19.70;19.00;;;21.10;61.30;;;;;;5071925;28;20952;-58
2023/01/10 03:08:40;;;;;;;19.83;19.03;;;21.10;61.30;;;;;;5075038;28;20491;-58
2023/01/10 03:11:10;;;;;;;19.40;18.70;;;21.10;61.30;;;;;;5082803;28;20447;-57
2023/01/10 03:13:43;;;;;;;19.43;18.73;;;21.10;61.30;;;;;;5071540;28;21038;-58
2023/01/10 03:16:15;;;;;;;19.80;19.00;;;21.10;61.30;;;;;;5071711;28;20928;-58
2023/01/10 03:18:47;;;;;;;20.07;19.17;;;21.10;61.20;;;;;;5075268;28;20439;-57
2023/01/10 03:21:15;;;;;;;19.20;18.50;;;21.10;61.30;;;;;;5071744;28;20450;-56
2023/01/10 03:23:45;;;;;;;19.60;18.90;;;21.10;61.20;;;;;;5071498;28;20494;-59
2023/01/10 03:26:14;;;;;;;19.70;18.90;;;21.10;61.20;;;;;;5071727;28;20509;-58
2023/01/10 03:28:47;;;;;;;19.43;18.73;;;21.10;61.20;;;;;;5071979;28;20443;-56
2023/01/10 03:31:17;;;;;;;19.60;18.90;;;21.10;61.10;;;;;;5071508;28;20439;-56
2023/01/10 03:33:47;;;;;;;19.90;19.10;;;21.10;61.10;;;;;;5071407;28;20493;-58
2023/01/10 03:36:32;;;;;;;19.27;18.57;;;21.10;61.10;;;;;;5071491;28;20504;-55
2023/01/10 03:39:08;;;;;;;19.20;18.50;;;21.10;61.10;;;;;;5077042;28;20515;-58
2023/01/10 03:41:39;;;;;;;21.10;20.17;;;21.00;61.00;;;;;;5091802;28;20489;-56
2023/01/10 03:47:15;;;;;;;20.40;19.60;;;21.00;61.00;;;;;;5066600;28;20441;-58
2023/01/10 03:49:47;;;;;;;20.37;19.50;;;21.00;61.10;;;;;;5079593;28;20512;-60
2023/01/10 03:52:16;;;;;;;19.80;19.10;;;21.00;61.10;;;;;;5071186;28;20493;-60
2023/01/10 03:54:44;;;;;;;19.70;19.00;;;21.00;61.20;;;;;;5071305;28;20529;-60
2023/01/10 03:57:17;;;;;;;21.80;21.00;;;21.00;61.20;;;;;;5071312;28;20446;-60
2023/01/10 03:59:43;;;;;;;20.00;19.30;;;21.10;61.30;;;;;;5070996;28;20452;-59
2023/01/10 04:02:10;;;;;;;20.03;19.33;;;21.10;61.30;;;;;;5071190;28;20471;-60
2023/01/10 04:04:37;;;;;;;20.40;19.60;;;21.10;61.30;;;;;;5071174;28;20435;-60
2023/01/10 04:07:05;;;;;;;20.57;19.77;;;21.10;61.30;;;;;;5071205;28;20449;-60
2023/01/10 04:09:33;;;;;;;20.20;19.37;;;21.10;61.40;;;;;;5080611;28;21225;-60
2023/01/10 04:11:59;;;;;;;20.17;19.37;;;21.10;61.50;;;;;;5091189;28;20995;-58
2023/01/10 04:14:27;;;;;;;20.30;19.50;;;21.10;61.60;;;;;;5091264;28;20478;-58
2023/01/10 04:16:54;;;;;;;20.83;19.93;;;21.10;61.50;;;;;;5090676;28;20449;-58
2023/01/10 04:19:21;;;;;;;20.40;19.40;;;21.10;61.50;;;;;;5091176;28;20446;-59
2023/01/10 04:21:47;;;;;;;20.17;19.20;;;21.10;61.60;;;;;;5092909;28;20438;-61
2023/01/10 04:24:16;;;;;;;20.00;19.10;;;21.10;61.50;;;;;;5095044;28;20517;-60
2023/01/10 04:26:43;;;;;;;20.60;19.80;;;21.10;61.50;;;;;;5094774;28;20529;-58
2023/01/10 04:29:10;;;;;;;20.63;19.83;;;21.10;61.50;;;;;;5094589;28;20456;-59
2023/01/10 04:31:38;;;;;;;20.07;19.30;;;21.10;61.50;;;;;;5095056;28;20483;-60
2023/01/10 04:34:05;;;;;;;20.57;19.70;;;21.20;61.70;;;;;;5094727;28;20574;-60
2023/01/10 04:36:33;;;;;;;20.47;19.60;;;21.20;61.60;;;;;;5089112;28;20442;-60
2023/01/10 04:39:00;;;;;;;21.80;20.80;;;21.20;61.50;;;;;;5094551;28;20442;-59
2023/01/10 04:41:28;;;;;;;20.73;19.83;;;21.20;61.50;;;;;;5094577;28;20445;-57
2023/01/10 04:43:55;;;;;;;21.40;20.40;;;21.20;61.50;;;;;;5094614;28;20515;-59
2023/01/10 04:46:22;;;;;;;20.20;19.40;;;21.20;61.50;;;;;;5094281;28;20882;-59
2023/01/10 04:48:49;;;;;;;21.03;20.13;;;21.20;61.60;;;;;;5094496;28;20446;-60
2023/01/10 04:51:16;;;;;;;20.87;20.07;;;21.20;61.50;;;;;;5094557;28;20557;-57
2023/01/10 04:53:43;;;;;;;21.30;20.40;;;21.30;61.60;;;;;;5094478;28;20482;-60
2023/01/10 04:56:15;;;;;;;21.20;20.20;;;21.30;61.50;;;;;;5093763;28;20551;-56
2023/01/10 04:58:43;;;;;;;21.33;20.20;;;21.30;61.40;;;;;;5094394;28;20939;-59
2023/01/10 05:01:12;;;;;;;21.37;20.37;;;21.30;61.50;;;;;;5094278;28;20451;-57
2023/01/10 05:03:39;;;;;;;21.60;20.70;;;21.30;61.30;;;;;;5094281;28;20486;-59
2023/01/10 05:06:07;;;;;;;21.63;20.73;;;21.30;61.40;;;;;;5093574;28;20865;-60
2023/01/10 05:08:34;;;;;;;21.33;20.53;;;21.30;61.30;;;;;;5094275;28;20446;-57
2023/01/10 05:11:01;;;;;;;22.17;21.17;;;21.30;61.10;;;;;;5093968;28;20438;-60
2023/01/10 05:13:28;;;;;;;22.27;21.17;;;21.30;61.20;;;;;;5093933;28;20496;-58
2023/01/10 05:15:57;;;;;;;22.10;21.10;;;21.40;61.30;;;;;;5088528;28;20475;-56
2023/01/10 05:18:25;;;;;;;21.93;21.03;;;21.40;61.30;;;;;;5073853;28;20489;-55
2023/01/10 05:20:52;;;;;;;21.57;20.67;;;21.40;61.30;;;;;;5073502;28;20525;-57
2023/01/10 05:23:19;;;;;;;21.80;20.90;;;21.40;61.40;;;;;;5074086;28;20475;-59
2023/01/10 05:25:46;;;;;;;21.40;20.50;;;21.40;61.30;;;;;;5073867;28;20443;-58
2023/01/10 05:28:13;;;;;;;21.27;20.47;;;21.40;61.20;;;;;;5073490;28;20534;-57
2023/01/10 05:30:40;;;;;;;21.87;20.87;;;21.50;61.40;;;;;;5073529;28;20475;-56
2023/01/10 05:33:08;;;;;;;21.60;20.70;;;21.50;61.30;;;;;;5072812;28;20701;-55
2023/01/10 05:35:35;;;;;;;22.50;21.20;;;21.50;61.10;;;;;;5089580;28;20541;-58
2023/01/10 05:38:02;;;;;;;23.20;22.00;;;21.50;61.20;;;;;;5093696;28;20450;-55
2023/01/10 05:40:30;;;;;;;22.40;21.30;;;21.50;61.50;;;;;;5093354;28;20457;-57
2023/01/10 05:42:56;;;;;;;22.57;21.43;;;21.50;62.10;;;;;;5075979;28;20482;-53
2023/01/10 05:45:23;;;;;;;24.30;22.70;;;21.60;63.50;;;;;;5087371;28;20529;-61
2023/01/10 05:47:50;;;;;;;23.77;22.13;;;21.60;64.90;;;;;;5093402;28;20534;-57
2023/01/10 05:50:18;;;;;;;25.97;23.33;;;21.60;66.30;;;;;;5081803;28;21040;-57
2023/01/10 05:52:45;;;;;;;24.27;22.60;;;21.70;67.40;;;;;;5073079;28;20546;-55
2023/01/10 05:55:12;;;;;;;24.37;22.70;;;21.70;67.50;;;;;;5072716;28;20574;-54
2023/01/10 05:57:39;;;;;;;23.80;22.40;;;21.80;67.10;;;;;;5072988;28;20471;-54
2023/01/10 06:00:07;;;;;;;23.60;22.20;;;21.80;66.60;;;;;;5072667;28;20518;-53
2023/01/10 06:02:34;;;;;;;26.40;24.70;;;21.80;65.90;;;;;;5072768;28;20546;-56
2023/01/10 06:05:01;;;;;;;24.03;22.80;;;21.80;65.40;;;;;;5072896;28;20500;-53
2023/01/10 06:07:31;;;;;;;25.27;23.97;;;21.80;64.90;;;;;;5072913;28;20861;-55
2023/01/10 06:09:57;;;;;;;25.40;23.70;;;21.90;64.50;;;;;;5072529;28;20451;-53
2023/01/10 06:12:24;;;;;;;24.37;23.03;;;21.90;64.10;;;;;;5072676;28;20554;-56
2023/01/10 06:14:51;;;;;;;23.83;22.50;;;21.90;63.70;;;;;;5072508;28;20567;-58
2023/01/10 06:17:18;;;;;;;24.57;22.77;;;21.90;63.30;;;;;;5072566;28;20447;-57
2023/01/10 06:19:44;;;;;;;23.70;22.40;;;21.90;63.00;;;;;;5072520;28;20542;-57
2023/01/10 06:22:11;;;;;;;25.23;23.30;;;22.00;62.80;;;;;;5072271;28;20562;-57
2023/01/10 06:24:41;;;;;;;24.80;23.20;;;21.90;62.30;;;;;;5072502;28;20538;-57
2023/01/10 06:27:08;;;;;;;25.47;23.20;;;21.90;62.00;;;;;;5072535;28;20458;-57
2023/01/10 06:29:35;;;;;;;24.33;22.80;;;22.00;61.80;;;;;;5072195;28;20497;-57
2023/01/10 06:32:02;;;;;;;24.60;22.93;;;21.90;61.40;;;;;;5072312;28;20443;-57
2023/01/10 06:34:28;;;;;;;23.57;22.27;;;22.00;61.30;;;;;;5072315;28;20578;-58
2023/01/10 06:36:55;;;;;;;23.90;22.60;;;21.90;61.00;;;;;;5072181;28;20446;-57
2023/01/10 06:39:22;;;;;;;22.70;21.60;;;21.90;60.70;;;;;;5072062;28;20941;-58
2023/01/10 06:41:50;;;;;;;22.67;21.57;;;21.90;60.50;;;;;;5071909;28;20446;-58
2023/01/10 06:44:17;;;;;;;23.57;22.30;;;21.90;60.30;;;;;;5071714;28;20526;-58
2023/01/10 06:46:44;;;;;;;23.10;22.00;;;21.90;60.10;;;;;;5071708;28;20538;-58
2023/01/10 06:49:11;;;;;;;23.83;22.53;;;21.90;60.00;;;;;;5071847;28;20545;-58
2023/01/10 06:51:37;;;;;;;23.03;21.70;;;21.90;59.90;;;;;;5071974;28;20538;-54
2023/01/10 06:54:04;;;;;;;23.90;22.37;;;21.90;59.80;;;;;;5071804;28;20518;-53
2023/01/10 06:56:31;;;;;;;23.30;22.07;;;21.90;59.70;;;;;;5071873;28;20451;-55
2023/01/10 06:58:59;;;;;;;23.80;22.43;;;21.90;59.60;;;;;;5071701;28;20439;-56
2023/01/10 07:01:26;;;;;;;22.50;21.40;;;21.80;59.50;;;;;;5072118;28;20531;-56
2023/01/10 07:03:53;;;;;;;23.67;22.43;;;21.90;59.40;;;;;;5071828;28;20467;-57
2023/01/10 07:06:21;;;;;;;23.30;22.00;;;21.80;59.30;;;;;;5071895;28;20444;-56
2023/01/10 07:08:48;;;;;;;22.70;21.40;;;21.90;59.20;;;;;;5071706;28;20447;-58
2023/01/10 07:11:15;;;;;;;25.07;23.20;;;21.80;59.10;;;;;;5071620;28;20563;-56
2023/01/10 07:13:42;;;;;;;24.20;22.63;;;21.80;59.10;;;;;;5071892;28;20509;-58
2023/01/10 07:16:12;;;;;;;23.97;22.77;;;21.80;59.00;;;;;;5071718;28;20568;-58
2023/01/10 07:18:41;;;;;;;23.60;22.00;;;21.80;58.90;;;;;;5071911;28;20474;-58
2023/01/10 07:21:08;;;;;;;22.60;21.50;;;21.80;58.90;;;;;;5071606;28;20447;-56
2023/01/10 07:23:35;;;;;;;22.37;21.30;;;21.70;58.70;;;;;;5071426;28;20479;-57
2023/01/10 07:26:04;;;;;;;22.87;21.60;;;21.70;58.60;;;;;;5071581;28;20443;-58
2023/01/10 07:28:33;;;;;;;22.53;21.53;;;21.70;58.60;;;;;;5071676;28;20446;-53
2023/01/10 07:31:00;;;;;;;23.37;22.03;;;21.70;58.60;;;;;;5071319;28;20477;-57
2023/01/10 07:33:30;;;;;;;23.17;21.90;;;21.60;58.50;;;;;;5071489;28;20526;-59
2023/01/10 07:35:57;;;;;;;21.63;20.63;;;21.60;58.50;;;;;;5071609;28;20479;-58
2023/01/10 07:38:23;;;;;;;22.73;21.53;;;21.60;58.40;;;;;;5071423;28;20453;-57
2023/01/10 07:40:50;;;;;;;22.77;21.60;;;21.60;58.40;;;;;;5071287;28;20449;-58
2023/01/10 07:43:18;;;;;;;24.00;22.80;;;21.50;58.30;;;;;;5071320;28;21047;-58
2023/01/10 07:45:44;;;;;;;23.47;22.17;;;21.50;58.40;;;;;;5071425;28;20954;-58
2023/01/10 07:48:11;;;;;;;22.53;21.50;;;21.50;58.30;;;;;;5071356;28;20458;-57
2023/01/10 07:50:39;;;;;;;23.27;21.80;;;21.40;58.30;;;;;;5071236;28;21008;-57
2023/01/10 07:53:07;;;;;;;22.80;21.60;;;21.40;58.30;;;;;;5071311;28;20772;-55
2023/01/10 07:55:38;;;;;;;22.37;21.30;;;21.40;58.90;;;;;;5071338;28;20474;-56
2023/01/10 07:58:06;;;;;;;22.87;21.87;;;21.40;58.30;;;;;;5075118;28;20446;-57
2023/01/10 08:00:33;;;;;;;22.73;21.63;;;21.40;58.40;;;;;;5075077;28;20447;-57
2023/01/10 08:03:00;;;;;;;23.23;22.03;;;21.30;58.30;;;;;;5075179;28;20470;-53
2023/01/10 08:05:27;;;;;;;22.57;21.40;;;21.30;58.40;;;;;;5075262;28;20861;-56
2023/01/10 08:07:58;;;;;;;22.90;21.63;;;21.30;58.40;;;;;;5075006;28;20526;-53
2023/01/10 08:10:26;;;;;;;22.47;21.17;;;21.20;58.40;;;;;;5074859;28;20448;-54
2023/01/10 08:12:52;;;;;;;24.70;23.30;;;21.20;58.40;;;;;;5074984;28;20463;-52
2023/01/10 08:15:19;;;;;;;22.77;21.57;;;21.20;58.40;;;;;;5074769;28;20571;-57
2023/01/10 08:17:46;;;;;;;22.40;21.40;;;21.20;58.50;;;;;;5074928;28;20453;-55
2023/01/10 08:20:13;;;;;;;24.40;23.00;;;21.20;58.50;;;;;;5074653;28;20529;-53
2023/01/10 08:22:40;;;;;;;23.63;22.47;;;21.10;58.40;;;;;;5074535;28;20474;-58
2023/01/10 08:25:09;;;;;;;22.70;21.60;;;21.10;58.50;;;;;;5074838;28;20440;-53
2023/01/10 08:27:36;;;;;;;23.87;22.70;;;21.10;58.50;;;;;;5074673;28;20450;-55
2023/01/10 08:30:03;;;;;;;23.97;22.60;;;21.10;58.50;;;;;;5074649;28;20450;-56
2023/01/10 08:32:30;;;;;;;23.90;22.80;;;21.10;58.50;;;;;;5074665;28;20554;-55
2023/01/10 08:34:57;;;;;;;23.40;22.27;;;21.00;58.50;;;;;;5074742;28;20828;-60
2023/01/10 08:37:24;;;;;;;23.40;22.37;;;21.00;58.50;;;;;;5074396;28;20569;-57
2023/01/10 08:39:50;;;;;;;22.50;21.50;;;21.00;58.50;;;;;;5074467;28;20454;-58
2023/01/10 08:42:19;;;;;;;22.60;21.50;;;21.00;58.50;;;;;;5074343;28;20558;-59
2023/01/10 08:44:45;;;;;;;23.47;22.37;;;20.90;58.40;;;;;;5074473;28;20522;-55
2023/01/10 08:47:13;;;;;;;22.50;21.30;;;20.90;58.40;;;;;;5074385;28;20537;-58
2023/01/10 08:49:40;;;;;;;22.30;21.30;;;20.90;58.50;;;;;;5074231;28;20443;-56
2023/01/10 08:52:06;;;;;;;23.47;22.27;;;20.90;58.50;;;;;;5074386;28;20554;-55
2023/01/10 08:54:34;;;;;;;23.40;22.10;;;20.90;58.50;;;;;;5074141;28;20485;-54
2023/01/10 08:57:01;;;;;;;22.80;21.80;;;20.90;58.50;;;;;;5074245;28;20454;-55
2023/01/10 08:59:29;;;;;;;22.13;21.13;;;20.90;58.50;;;;;;5074095;28;20526;-54
2023/01/10 09:01:57;;;;;;;22.97;21.77;;;20.80;58.50;;;;;;5073971;28;20527;-57
2023/01/10 09:04:25;;;;;;;22.33;21.13;;;20.80;58.50;;;;;;5074110;28;20439;-58
2023/01/10 09:06:51;;;;;;;22.70;21.50;;;20.80;58.50;;;;;;5073970;28;20799;-59
2023/01/10 09:09:18;;;;;;;22.63;21.63;;;20.80;58.50;;;;;;5072985;28;21087;-59
2023/01/10 09:11:45;;;;;;;23.30;22.10;;;20.80;58.50;;;;;;5073725;28;20453;-59
2023/01/10 09:14:12;;;;;;;23.07;21.90;;;20.70;58.40;;;;;;5073771;28;21143;-58
2023/01/10 09:16:40;;;;;;;22.93;21.83;;;20.70;58.40;;;;;;5073821;28;20439;-59
2023/01/10 09:19:07;;;;;;;23.33;22.13;;;20.70;58.30;;;;;;5073681;28;20886;-54
2023/01/10 09:21:34;;;;;;;22.77;21.60;;;20.70;58.40;;;;;;5073671;28;20816;-56
2023/01/10 09:24:01;;;;;;;23.60;22.10;;;20.70;58.30;;;;;;5073564;28;20475;-55
2023/01/10 09:26:28;;;;;;;23.10;22.00;;;20.70;58.30;;;;;;5073746;28;20510;-54
2023/01/10 09:28:54;;;;;;;23.10;21.70;;;20.60;58.20;;;;;;5073428;28;20458;-54
2023/01/10 09:31:21;;;;;;;22.10;21.10;;;20.60;58.20;;;;;;5073597;28;20530;-57
2023/01/10 09:33:49;;;;;;;22.20;21.20;;;20.60;58.20;;;;;;5073600;28;20626;-55
2023/01/10 09:36:16;;;;;;;24.10;23.00;;;20.60;58.20;;;;;;5073303;28;20480;-54
2023/01/10 09:38:43;;;;;;;23.23;22.13;;;20.60;58.20;;;;;;5073456;28;20534;-59
2023/01/10 09:41:42;;;;;;;23.50;22.17;;;20.60;58.20;;;;;;5073331;28;20449;-57
2023/01/10 09:44:19;;;;;;;21.90;21.00;;;20.50;58.10;;;;;;5038937;28;20466;-56
2023/01/10 09:46:58;;;;;;;22.50;21.50;;;20.50;58.00;;;;;;5073346;28;20534;-59
2023/01/10 09:49:40;;;;;;;22.97;21.87;;;20.50;58.10;;;;;;5073121;28;20446;-57
2023/01/10 09:52:19;;;;;;;22.87;21.80;;;20.50;58.10;;;;;;5073061;28;20628;-55
2023/01/10 09:54:48;;;;;;;22.43;21.43;;;20.50;58.10;;;;;;5073203;28;20883;-57
2023/01/10 09:57:18;;;;;;;22.63;21.63;;;20.40;58.10;;;;;;5072966;28;20447;-56
2023/01/10 09:59:49;;;;;;;22.90;21.80;;;20.40;58.10;;;;;;5072859;28;20449;-57
2023/01/10 10:02:25;;;;;;;22.70;21.63;;;20.40;58.00;;;;;;5072820;28;20467;-58
2023/01/10 10:05:11;;;;;;;22.67;21.57;;;20.40;58.00;;;;;;5072909;28;20439;-60
2023/01/10 10:07:38;;;;;;;22.63;21.63;;;20.40;57.90;;;;;;5072938;28;20479;-58
2023/01/10 10:10:06;;;;;;;21.80;20.90;;;20.30;57.90;;;;;;5072599;28;20786;-56
2023/01/10 10:12:41;;;;;;;22.77;21.40;;;20.30;57.90;;;;;;5072629;28;20472;-60
2023/01/10 10:15:18;;;;;;;22.53;21.43;;;20.40;58.00;;;;;;5073970;28;20517;-55
2023/01/10 10:17:52;;;;;;;22.27;21.27;;;20.30;57.90;;;;;;5074573;28;20449;-58
2023/01/10 10:20:40;;;;;;;22.00;21.00;;;20.30;57.90;;;;;;5075767;28;20928;-58
2023/01/10 10:23:28;;;;;;;21.87;20.83;;;20.30;57.80;;;;;;5072601;28;20478;-57
2023/01/10 10:26:02;;;;;;;22.10;21.00;;;20.30;57.80;;;;;;5072505;28;20786;-59
2023/01/10 10:29:02;;;;;;;22.37;21.27;;;20.30;57.80;;;;;;5072634;28;20439;-58
2023/01/10 10:31:48;;;;;;;22.40;21.20;;;20.30;57.80;;;;;;5072515;28;20447;-57
2023/01/10 10:34:22;;;;;;;22.47;21.30;;;20.30;57.80;;;;;;5073260;28;20435;-58
2023/01/10 10:36:54;;;;;;;22.40;21.40;;;20.20;57.70;;;;;;5073116;28;20449;-58
2023/01/10 10:39:25;;;;;;;22.50;21.50;;;20.20;57.70;;;;;;5072150;28;20445;-57
2023/01/10 10:41:53;;;;;;;22.90;21.80;;;20.20;57.80;;;;;;5072084;28;20453;-57
2023/01/10 10:44:32;;;;;;;22.67;21.63;;;20.20;57.70;;;;;;5072300;28;20444;-57
2023/01/10 10:47:00;;;;;;;23.17;21.80;;;20.20;57.70;;;;;;5073950;28;20449;-57
2023/01/10 10:49:37;;;;;;;22.30;21.23;;;20.10;57.70;;;;;;5073628;28;20609;-55
2023/01/10 10:52:14;;;;;;;22.20;21.20;;;20.10;57.70;;;;;;5074225;28;21000;-57
2023/01/10 10:54:42;;;;;;;22.70;21.70;;;20.10;57.60;;;;;;5072021;28;20439;-55
2023/01/10 10:57:11;;;;;;;22.00;21.10;;;20.10;57.60;;;;;;5072048;28;20444;-56
2023/01/10 10:59:38;;;;;;;21.93;20.97;;;20.10;57.60;;;;;;5071788;28;20538;-57
2023/01/10 11:02:20;;;;;;;22.47;21.57;;;20.10;57.60;;;;;;5071785;28;20964;-59
2023/01/10 11:04:47;;;;;;;22.67;21.57;;;20.10;57.60;;;;;;5071859;28;20500;-58
2023/01/10 11:07:18;;;;;;;22.83;21.80;;;20.10;57.60;;;;;;5072236;28;20446;-58
2023/01/10 11:09:46;;;;;;;22.10;21.13;;;20.10;57.60;;;;;;5071854;28;20453;-58
2023/01/10 11:12:14;;;;;;;23.00;21.80;;;20.10;57.60;;;;;;5071712;28;20463;-58
2023/01/10 11:14:44;;;;;;;22.90;21.80;;;20.10;57.60;;;;;;5071621;28;20951;-59
2023/01/10 11:17:19;;;;;;;22.03;20.97;;;20.00;57.60;;;;;;5071982;28;20458;-54
2023/01/10 11:19:55;;;;;;;22.37;21.30;;;20.00;57.50;;;;;;5071430;28;20447;-58
2023/01/10 11:22:24;;;;;;;23.10;21.90;;;20.00;57.60;;;;;;5109926;22;20482;-64
2023/01/10 11:24:54;;;;;;;22.10;21.13;;;20.00;57.60;;;;;;5031695;28;20452;-65
2023/01/10 11:27:23;;;;;;;22.60;21.60;;;20.00;57.60;;;;;;5031841;28;20448;-64
2023/01/10 11:29:52;;;;;;;22.40;21.50;;;20.00;57.70;;;;;;5031394;28;20796;-64
2023/01/10 11:32:23;;;;;;;23.00;21.90;;;20.00;57.70;;;;;;5031011;28;20441;-64
2023/01/10 11:34:53;;;;;;;22.77;21.50;;;19.90;57.60;;;;;;5031420;28;20447;-64
2023/01/10 11:37:27;;;;;;;22.40;21.30;;;20.00;57.70;;;;;;5031566;28;20444;-64
2023/01/10 11:40:18;;;;;;;21.93;21.00;;;20.00;57.70;;;;;;5031413;28;20445;-64
2023/01/10 11:42:45;;;;;;;22.43;21.43;;;19.90;57.70;;;;;;5031412;28;20468;-64
2023/01/10 11:45:23;;;;;;;22.23;21.23;;;19.90;57.70;;;;;;5031462;28;20449;-64
2023/01/10 11:47:54;;;;;;;24.03;22.70;;;19.90;57.70;;;;;;5031547;28;20451;-65
2023/01/10 11:50:24;;;;;;;22.23;21.23;;;19.90;57.70;;;;;;5031198;28;20829;-65
2023/01/10 11:52:53;;;;;;;22.50;21.50;;;19.90;57.70;;;;;;5031328;28;20468;-65
2023/01/10 11:55:22;;;;;;;23.33;22.00;;;19.90;57.70;;;;;;5031372;28;20571;-65
2023/01/10 11:57:58;;;;;;;22.43;21.50;;;19.90;57.80;;;;;;5031427;28;20487;-64
2023/01/10 12:00:32;;;;;;;22.50;21.50;;;19.90;57.80;;;;;;5031175;28;20827;-64
2023/01/10 12:03:00;;;;;;;22.83;21.73;;;19.90;57.70;;;;;;5031208;28;20551;-66
2023/01/10 12:05:27;;;;;;;22.27;21.27;;;19.90;57.70;;;;;;5031339;28;20532;-64
2023/01/10 12:07:57;;;;;;;22.20;21.20;;;19.90;57.80;;;;;;5031334;28;20942;-65
2023/01/10 12:10:26;;;;;;;22.30;21.30;;;19.90;57.80;;;;;;5031048;28;20483;-65
2023/01/10 12:12:56;;;;;;;22.00;21.00;;;19.90;57.80;;;;;;5031128;28;20475;-64
2023/01/10 12:15:25;;;;;;;22.30;21.30;;;19.80;57.70;;;;;;5031102;28;21008;-64
2023/01/10 12:17:55;;;;;;;22.50;21.30;;;19.80;57.70;;;;;;5031077;28;20459;-64
2023/01/10 12:20:23;;;;;;;22.33;21.33;;;19.80;57.70;;;;;;5030950;28;20536;-64
2023/01/10 12:22:54;;;;;;;22.57;21.57;;;19.80;57.70;;;;;;5031130;28;20484;-64
2023/01/10 12:25:30;;;;;;;22.50;21.57;;;19.80;57.70;;;;;;5031214;28;20543;-64
2023/01/10 12:27:58;;;;;;;22.33;21.33;;;19.80;57.70;;;;;;5031110;28;20448;-63
2023/01/10 12:30:31;;;;;;;22.83;21.73;;;19.80;57.80;;;;;;5031035;28;20445;-64
2023/01/10 12:33:02;;;;;;;23.10;22.00;;;19.80;57.80;;;;;;5031123;28;20481;-63
2023/01/10 12:35:38;;;;;;;21.93;21.10;;;19.80;57.80;;;;;;5030995;28;20927;-64
2023/01/10 12:38:19;;;;;;;21.93;20.93;;;19.70;57.80;;;;;;5031083;28;20444;-64
2023/01/10 12:40:52;;;;;;;22.20;21.30;;;19.80;57.90;;;;;;5030923;28;20457;-64
2023/01/10 12:46:20;;;;;;;21.90;21.00;;;19.80;58.00;;;;;;5034777;28;20421;-64
2023/01/10 12:48:54;;;;;;;22.70;21.60;;;19.70;57.90;;;;;;5034239;28;20445;-64
2023/01/10 12:51:26;;;;;;;22.30;21.40;;;19.70;58.50;;;;;;5034412;28;20455;-64
2023/01/10 12:53:57;;;;;;;21.50;20.60;;;19.70;58.00;;;;;;5034355;28;20483;-64
2023/01/10 12:56:25;;;;;;;21.97;20.87;;;19.70;58.00;;;;;;5034576;28;20495;-64